Time;durP1;ratioP1;P1;durP2;ratioP2;P2;SDS_P1;SDS_P2;PMS_P1;PMS_P2;Temp;Humidity;BMP_temperature;BMP_pressure;BME280_temperature;BME280_humidity;BME280_pressure;Samples;Min_cycle;Max_cycle;Signal;HPM_P1;HPM_P2
2023/12/24 00:01:55;;;;;;;9.70;5.27;;;;;11.60;95893.00;;;;5047071;28;20221;-66
2023/12/24 00:04:44;;;;;;;4.87;3.30;;;;;11.60;95894.00;;;;5060142;28;20211;-67
2023/12/24 00:07:33;;;;;;;16.43;6.40;;;;;10.90;95903.00;;;;5044680;28;20224;-66
2023/12/24 00:10:24;;;;;;;27.70;9.93;;;;;10.90;95900.00;;;;5055587;28;20201;-67
2023/12/24 00:13:13;;;;;;;26.47;8.73;;;;;10.40;95888.00;;;;5048319;28;20228;-67
2023/12/24 00:16:02;;;;;;;11.00;4.73;;;;;10.80;95904.00;;;;5053384;28;20588;-67
2023/12/24 00:18:51;;;;;;;11.47;4.47;;;;;11.10;95901.00;;;;5037976;28;20212;-67
2023/12/24 00:21:42;;;;;;;4.80;2.50;;;;;10.90;95916.00;;;;5043197;28;20204;-66
2023/12/24 00:24:31;;;;;;;10.67;4.00;;;;;10.30;95916.00;;;;5048488;28;20197;-67
2023/12/24 00:27:21;;;;;;;23.70;8.23;;;;;10.20;95912.00;;;;5054441;28;20216;-67
2023/12/24 00:30:12;;;;;;;21.43;7.73;;;;;10.90;95909.00;;;;5055351;28;20559;-66
2023/12/24 00:33:01;;;;;;;13.20;5.23;;;;;10.80;95920.00;;;;5049759;28;20229;-66
2023/12/24 00:35:50;;;;;;;11.03;4.70;;;;;10.80;95921.00;;;;5054732;28;20591;-66
2023/12/24 00:38:39;;;;;;;9.70;3.80;;;;;10.90;95917.00;;;;5041936;28;20208;-67
2023/12/24 00:41:30;;;;;;;12.17;4.83;;;;;10.50;95923.00;;;;5046912;28;20302;-67
2023/12/24 00:44:20;;;;;;;12.40;4.50;;;;;9.80;95905.00;;;;5060530;28;20204;-67
2023/12/24 00:47:09;;;;;;;19.47;6.53;;;;;10.30;95937.00;;;;5052814;28;20296;-67
2023/12/24 00:49:58;;;;;;;13.10;4.87;;;;;10.40;95928.00;;;;5057781;28;20197;-67
2023/12/24 00:52:48;;;;;;;9.53;3.60;;;;;10.60;95934.00;;;;5048101;28;20227;-67
2023/12/24 00:55:37;;;;;;;16.43;6.07;;;;;10.70;95938.00;;;;5043177;28;20228;-67
2023/12/24 00:58:27;;;;;;;9.13;3.83;;;;;10.20;95946.00;;;;5051015;28;20677;-67
2023/12/24 01:01:17;;;;;;;16.00;5.87;;;;;10.50;95942.00;;;;5044679;28;20242;-67
2023/12/24 01:04:06;;;;;;;12.17;4.60;;;;;10.40;95951.00;;;;5048687;28;20205;-66
2023/12/24 01:06:56;;;;;;;12.87;5.13;;;;;10.50;95940.00;;;;5050549;28;20210;-66
2023/12/24 01:09:45;;;;;;;10.57;4.60;;;;;10.80;95958.00;;;;5046683;28;20200;-67
2023/12/24 01:12:35;;;;;;;13.23;5.47;;;;;10.80;95940.00;;;;5042424;28;20612;-67
2023/12/24 01:15:24;;;;;;;18.50;6.93;;;;;10.30;95960.00;;;;5052337;28;20236;-67
2023/12/24 01:18:14;;;;;;;22.10;8.13;;;;;10.60;95970.00;;;;5044975;28;20208;-67
2023/12/24 01:21:03;;;;;;;9.20;4.33;;;;;10.60;95981.00;;;;5046606;28;21013;-67
2023/12/24 01:23:53;;;;;;;10.90;4.83;;;;;10.60;95972.00;;;;5057053;28;20702;-67
2023/12/24 01:26:42;;;;;;;11.97;5.37;;;;;10.40;95978.00;;;;5047510;28;20210;-68
2023/12/24 01:29:31;;;;;;;10.07;4.87;;;;;10.60;96000.00;;;;5048220;28;20588;-67
2023/12/24 01:32:20;;;;;;;20.67;8.00;;;;;10.50;95980.00;;;;5043524;28;20251;-69
2023/12/24 01:35:11;;;;;;;14.67;5.60;;;;;10.70;96006.00;;;;5051170;28;20212;-69
2023/12/24 01:38:00;;;;;;;12.00;5.40;;;;;10.70;96003.00;;;;5052955;28;20684;-69
2023/12/24 01:40:50;;;;;;;10.80;4.90;;;;;10.70;96005.00;;;;5049269;28;20231;-69
2023/12/24 01:43:39;;;;;;;3.53;2.23;;;;;10.40;96004.00;;;;5037902;28;20221;-69
2023/12/24 01:46:28;;;;;;;9.93;4.23;;;;;9.90;96001.00;;;;5045998;28;20208;-67
2023/12/24 01:49:17;;;;;;;16.50;6.47;;;;;10.50;96014.00;;;;5045933;28;20596;-67
2023/12/24 01:52:08;;;;;;;21.70;7.73;;;;;10.30;96008.00;;;;5046014;28;20220;-67
2023/12/24 01:54:58;;;;;;;10.83;4.43;;;;;10.10;96012.00;;;;5051155;28;20685;-67
2023/12/24 01:57:47;;;;;;;4.20;2.57;;;;;9.50;96014.00;;;;5056748;28;20211;-67
2023/12/24 02:00:36;;;;;;;6.80;3.80;;;;;9.60;96011.00;;;;5049120;28;20221;-68
2023/12/24 02:03:26;;;;;;;24.67;8.97;;;;;9.50;96023.00;;;;5048728;28;20231;-66
2023/12/24 02:06:16;;;;;;;19.47;7.00;;;;;10.10;96031.00;;;;5054565;28;20216;-67
2023/12/24 02:09:06;;;;;;;12.57;5.50;;;;;10.40;96030.00;;;;5058220;28;20216;-67
2023/12/24 02:11:55;;;;;;;17.60;7.00;;;;;10.10;96028.00;;;;5052314;28;20227;-66
2023/12/24 02:14:44;;;;;;;9.27;4.20;;;;;9.90;96025.00;;;;5056469;28;20569;-67
2023/12/24 02:17:34;;;;;;;16.53;5.97;;;;;10.20;96027.00;;;;5048224;28;20204;-67
2023/12/24 02:20:25;;;;;;;23.77;8.93;;;;;10.30;96025.00;;;;5049219;28;20228;-67
2023/12/24 02:23:16;;;;;;;25.23;9.37;;;;;10.30;96019.00;;;;5060765;28;20757;-67
2023/12/24 02:26:20;;;;;;;13.37;6.60;;;;;10.40;96025.00;;;;5049879;28;20229;-67
2023/12/24 02:29:13;;;;;;;12.43;5.60;;;;;9.30;96032.00;;;;5049700;28;20204;-69
2023/12/24 02:32:08;;;;;;;23.40;8.97;;;;;9.70;96039.00;;;;5054931;28;20705;-67
2023/12/24 02:34:59;;;;;;;13.13;6.43;;;;;10.10;96033.00;;;;5057858;28;20203;-67
2023/12/24 02:37:48;;;;;;;11.43;5.13;;;;;10.10;96045.00;;;;5049822;28;20207;-67
2023/12/24 02:40:39;;;;;;;11.53;5.80;;;;;10.00;96027.00;;;;5049400;28;20224;-67
2023/12/24 02:43:28;;;;;;;6.87;3.60;;;;;9.80;96037.00;;;;5048081;28;22017;-67
2023/12/24 02:46:17;;;;;;;15.87;6.57;;;;;10.00;96040.00;;;;5050310;28;20201;-67
2023/12/24 02:49:06;;;;;;;10.63;4.73;;;;;10.00;96037.00;;;;5053995;28;20219;-66
2023/12/24 02:51:55;;;;;;;15.97;6.40;;;;;9.60;96038.00;;;;5059604;28;20767;-67
2023/12/24 02:54:45;;;;;;;12.10;5.33;;;;;9.70;96042.00;;;;5050900;28;20204;-67
2023/12/24 02:57:35;;;;;;;6.20;3.87;;;;;9.70;96049.00;;;;5048038;28;20215;-67
2023/12/24 03:00:24;;;;;;;27.00;9.77;;;;;9.60;96054.00;;;;5053629;28;20219;-67
2023/12/24 03:03:13;;;;;;;30.70;10.87;;;;;9.30;96063.00;;;;5056206;28;20228;-67
2023/12/24 03:06:03;;;;;;;11.63;4.83;;;;;8.80;96064.00;;;;5055075;28;20233;-67
2023/12/24 03:08:52;;;;;;;10.23;4.80;;;;;9.10;96057.00;;;;5049277;28;20211;-68
2023/12/24 03:11:41;;;;;;;8.23;3.87;;;;;9.30;96055.00;;;;5049098;28;20611;-68
2023/12/24 03:14:32;;;;;;;3.17;2.43;;;;;8.80;96058.00;;;;5047952;28;20196;-68
2023/12/24 03:17:21;;;;;;;25.50;8.97;;;;;9.00;96068.00;;;;5050474;28;20204;-68
2023/12/24 03:20:10;;;;;;;10.77;4.70;;;;;8.90;96060.00;;;;5048995;28;20211;-68
2023/12/24 03:23:00;;;;;;;12.77;5.50;;;;;9.00;96056.00;;;;5054227;28;20251;-68
2023/12/24 03:25:49;;;;;;;13.60;5.83;;;;;9.00;96069.00;;;;5050971;28;20201;-67
2023/12/24 03:28:38;;;;;;;10.97;4.33;;;;;9.20;96070.00;;;;5050986;28;20673;-68
2023/12/24 03:31:28;;;;;;;21.67;7.73;;;;;8.90;96071.00;;;;5053795;28;20205;-67
2023/12/24 03:34:18;;;;;;;12.63;5.10;;;;;9.00;96067.00;;;;5049085;28;20196;-67
2023/12/24 03:37:07;;;;;;;15.50;5.83;;;;;9.50;96070.00;;;;5058026;28;20674;-67
2023/12/24 03:39:56;;;;;;;12.30;5.33;;;;;9.30;96071.00;;;;5053530;28;20204;-67
2023/12/24 03:42:45;;;;;;;12.47;5.83;;;;;9.00;96059.00;;;;5054913;28;20235;-67
2023/12/24 03:45:35;;;;;;;3.90;2.50;;;;;8.70;96057.00;;;;5061495;28;20208;-66
2023/12/24 03:48:25;;;;;;;10.80;4.57;;;;;9.10;96053.00;;;;5051556;28;20212;-67
2023/12/24 03:51:14;;;;;;;21.17;7.87;;;;;9.30;96056.00;;;;5048373;28;20263;-67
2023/12/24 03:54:04;;;;;;;11.43;4.90;;;;;9.50;96066.00;;;;5054852;28;20204;-67
2023/12/24 03:56:53;;;;;;;8.40;4.03;;;;;9.10;96055.00;;;;5051317;28;20204;-66
2023/12/24 03:59:42;;;;;;;12.00;4.97;;;;;9.50;96077.00;;;;5052610;28;20207;-67
2023/12/24 04:02:31;;;;;;;10.57;4.53;;;;;9.70;96075.00;;;;5049486;28;20286;-67
2023/12/24 04:05:22;;;;;;;22.20;8.50;;;;;8.80;96077.00;;;;5052003;28;20212;-67
2023/12/24 04:08:11;;;;;;;4.93;3.13;;;;;9.10;96070.00;;;;5048296;28;20227;-66
2023/12/24 04:11:00;;;;;;;9.83;4.23;;;;;9.30;96065.00;;;;5048041;28;20574;-66
2023/12/24 04:13:49;;;;;;;10.83;4.93;;;;;9.50;96072.00;;;;5053160;28;20238;-67
2023/12/24 04:16:38;;;;;;;11.13;4.83;;;;;9.40;96087.00;;;;5049496;28;20208;-67
2023/12/24 04:19:27;;;;;;;18.13;7.10;;;;;9.20;96076.00;;;;5050308;28;20601;-67
2023/12/24 04:22:18;;;;;;;21.97;7.67;;;;;8.40;96089.00;;;;5052731;28;20955;-66
2023/12/24 04:25:07;;;;;;;10.43;4.40;;;;;9.00;96098.00;;;;5050000;28;20209;-66
2023/12/24 04:27:56;;;;;;;7.33;3.87;;;;;8.80;96101.00;;;;5051619;28;20196;-66
2023/12/24 04:30:45;;;;;;;10.07;4.53;;;;;9.00;96110.00;;;;5047455;28;20585;-66
2023/12/24 04:33:35;;;;;;;11.43;4.67;;;;;9.00;96098.00;;;;5055240;28;20689;-68
2023/12/24 04:36:24;;;;;;;18.30;6.83;;;;;8.70;96101.00;;;;5054388;28;20208;-66
2023/12/24 04:39:14;;;;;;;15.47;5.73;;;;;8.40;96091.00;;;;5048003;28;20212;-66
2023/12/24 04:42:03;;;;;;;20.67;7.37;;;;;8.90;96093.00;;;;5052929;28;20239;-67
2023/12/24 04:44:52;;;;;;;11.70;4.63;;;;;8.30;96099.00;;;;5041798;28;20204;-68
2023/12/24 04:47:42;;;;;;;4.90;3.10;;;;;8.60;96112.00;;;;5053934;28;20750;-67
2023/12/24 04:50:31;;;;;;;8.23;3.80;;;;;8.20;96118.00;;;;5055166;28;20219;-66
2023/12/24 04:53:20;;;;;;;30.43;10.27;;;;;8.70;96115.00;;;;5056558;28;20220;-66
2023/12/24 04:56:20;;;;;;;12.60;5.73;;;;;8.90;96125.00;;;;5053748;28;20214;-66
2023/12/24 04:59:09;;;;;;;11.93;5.40;;;;;9.00;96118.00;;;;5055123;28;20669;-66
2023/12/24 05:01:58;;;;;;;16.87;6.60;;;;;9.10;96130.00;;;;5051718;28;20219;-66
2023/12/24 05:04:47;;;;;;;13.10;5.77;;;;;9.10;96116.00;;;;5050987;28;20210;-66
2023/12/24 05:07:36;;;;;;;11.53;5.93;;;;;9.30;96131.00;;;;5043640;28;20201;-67
2023/12/24 05:10:27;;;;;;;29.60;11.23;;;;;9.30;96124.00;;;;5052038;28;20215;-67
2023/12/24 05:13:17;;;;;;;33.20;11.97;;;;;8.70;96129.00;;;;5046051;28;20232;-67
2023/12/24 05:16:07;;;;;;;9.97;5.87;;;;;9.10;96126.00;;;;5056051;28;20201;-69
2023/12/24 05:18:56;;;;;;;11.60;6.23;;;;;8.60;96138.00;;;;5049306;28;20586;-66
2023/12/24 05:21:45;;;;;;;12.40;6.53;;;;;8.80;96139.00;;;;5041309;28;20223;-66
2023/12/24 05:24:34;;;;;;;15.20;7.20;;;;;9.40;96147.00;;;;5050996;28;20598;-67
2023/12/24 05:27:23;;;;;;;28.53;12.03;;;;;9.50;96142.00;;;;5049507;28;20211;-67
2023/12/24 05:30:14;;;;;;;19.63;9.97;;;;;9.50;96152.00;;;;5044224;28;20212;-66
2023/12/24 05:33:03;;;;;;;15.33;7.77;;;;;9.70;96158.00;;;;5051241;28;20617;-67
2023/12/24 05:35:52;;;;;;;10.03;6.23;;;;;9.20;96158.00;;;;5047066;28;20197;-67
2023/12/24 05:38:42;;;;;;;10.60;5.57;;;;;9.50;96154.00;;;;5045174;28;20200;-66
2023/12/24 05:41:31;;;;;;;13.33;7.07;;;;;8.70;96151.00;;;;5047955;28;20205;-65
2023/12/24 05:44:22;;;;;;;20.70;9.87;;;;;9.50;96160.00;;;;5056345;28;20205;-67
2023/12/24 05:47:13;;;;;;;15.57;7.97;;;;;9.60;96161.00;;;;5046844;28;20219;-66
2023/12/24 05:50:02;;;;;;;13.03;6.27;;;;;9.50;96155.00;;;;5047233;28;20749;-67
2023/12/24 05:52:51;;;;;;;12.80;7.03;;;;;9.70;96161.00;;;;5045399;28;20754;-67
2023/12/24 05:55:40;;;;;;;16.10;8.33;;;;;9.70;96160.00;;;;5043829;28;20196;-67
2023/12/24 05:58:30;;;;;;;20.50;9.07;;;;;9.70;96164.00;;;;5055405;28;20207;-67
2023/12/24 06:01:19;;;;;;;15.47;8.23;;;;;9.70;96170.00;;;;5048268;28;20204;-67
2023/12/24 06:04:10;;;;;;;10.83;6.57;;;;;9.80;96177.00;;;;5052959;28;20215;-67
2023/12/24 06:07:01;;;;;;;14.03;8.60;;;;;9.30;96172.00;;;;5049281;28;20212;-67
2023/12/24 06:09:50;;;;;;;9.30;6.67;;;;;9.50;96172.00;;;;5045394;28;20570;-68
2023/12/24 06:12:39;;;;;;;6.33;5.50;;;;;9.60;96171.00;;;;5051711;28;20227;-67
2023/12/24 06:15:28;;;;;;;19.67;10.00;;;;;9.60;96175.00;;;;5053597;28;20227;-67
2023/12/24 06:18:17;;;;;;;22.73;11.37;;;;;9.00;96169.00;;;;5044671;28;20216;-67
2023/12/24 06:21:08;;;;;;;14.23;8.90;;;;;8.90;96168.00;;;;5052396;28;20201;-67
2023/12/24 06:23:57;;;;;;;12.40;6.13;;;;;9.00;96171.00;;;;5046299;28;20834;-67
2023/12/24 06:26:46;;;;;;;14.03;7.03;;;;;9.40;96182.00;;;;5051029;28;20689;-68
2023/12/24 06:29:38;;;;;;;9.93;6.13;;;;;9.40;96184.00;;;;5046638;28;20201;-67
2023/12/24 06:32:27;;;;;;;19.63;9.20;;;;;9.40;96177.00;;;;5057544;28;20220;-67
2023/12/24 06:35:16;;;;;;;19.87;8.63;;;;;9.40;96187.00;;;;5050789;28;20674;-68
2023/12/24 06:38:07;;;;;;;14.87;7.63;;;;;9.00;96176.00;;;;5048868;28;20211;-68
2023/12/24 06:40:56;;;;;;;13.63;7.67;;;;;9.20;96185.00;;;;5053179;28;20204;-68
2023/12/24 06:43:45;;;;;;;10.40;6.30;;;;;9.30;96197.00;;;;5052507;28;20229;-68
2023/12/24 06:46:34;;;;;;;12.80;7.13;;;;;9.30;96190.00;;;;5041683;28;20223;-67
2023/12/24 06:49:23;;;;;;;19.57;8.27;;;;;9.30;96198.00;;;;5059124;28;20203;-68
2023/12/24 06:52:12;;;;;;;16.83;7.17;;;;;9.20;96194.00;;;;5043657;28;20231;-67
2023/12/24 06:55:03;;;;;;;15.53;7.43;;;;;9.10;96187.00;;;;5053230;28;20204;-68
2023/12/24 06:57:52;;;;;;;13.97;7.40;;;;;9.10;96191.00;;;;5050341;28;20196;-67
2023/12/24 07:00:41;;;;;;;14.13;7.93;;;;;8.90;96188.00;;;;5036719;28;20559;-68
2023/12/24 07:03:31;;;;;;;22.20;11.27;;;;;9.20;96196.00;;;;5051375;28;20220;-68
2023/12/24 07:06:20;;;;;;;25.23;11.73;;;;;9.30;96186.00;;;;5050596;28;20243;-68
2023/12/24 07:09:09;;;;;;;14.60;8.10;;;;;9.00;96188.00;;;;5052878;28;20258;-68
2023/12/24 07:11:59;;;;;;;17.37;8.57;;;;;8.80;96193.00;;;;5054165;28;20231;-67
2023/12/24 07:14:48;;;;;;;18.73;10.03;;;;;9.20;96196.00;;;;5047023;28;20967;-67
2023/12/24 07:17:38;;;;;;;15.77;8.37;;;;;9.30;96189.00;;;;5045001;28;20200;-68
2023/12/24 07:20:27;;;;;;;36.80;14.40;;;;;9.00;96186.00;;;;5045809;28;20209;-68
2023/12/24 07:23:16;;;;;;;28.17;10.97;;;;;9.20;96179.00;;;;5042381;28;20606;-68
2023/12/24 07:26:08;;;;;;;21.40;10.73;;;;;9.40;96184.00;;;;5048664;28;20278;-68
2023/12/24 07:28:59;;;;;;;16.43;8.73;;;;;9.50;96178.00;;;;5039736;28;20212;-68
2023/12/24 07:31:48;;;;;;;20.83;9.77;;;;;9.40;96191.00;;;;5039533;28;20216;-68
2023/12/24 07:34:37;;;;;;;18.43;7.80;;;;;8.80;96177.00;;;;5043590;28;20727;-67
2023/12/24 07:37:27;;;;;;;34.53;14.43;;;;;8.90;96183.00;;;;5039110;28;20208;-67
2023/12/24 07:40:16;;;;;;;33.33;13.50;;;;;9.20;96176.00;;;;5034856;28;20201;-68
2023/12/24 07:43:05;;;;;;;23.53;10.33;;;;;9.40;96176.00;;;;5034950;28;20256;-68
2023/12/24 07:45:56;;;;;;;18.63;8.33;;;;;9.40;96191.00;;;;5036305;28;20197;-68
2023/12/24 07:48:45;;;;;;;13.47;7.40;;;;;9.30;96184.00;;;;5045873;28;20223;-67
2023/12/24 07:51:35;;;;;;;13.40;7.83;;;;;9.00;96174.00;;;;5041722;28;20208;-67
2023/12/24 07:54:24;;;;;;;23.97;11.07;;;;;9.40;96172.00;;;;5042215;28;20202;-67
2023/12/24 07:57:15;;;;;;;22.33;10.63;;;;;9.70;96167.00;;;;5043912;28;20197;-67
2023/12/24 08:00:07;;;;;;;9.97;7.30;;;;;9.80;96166.00;;;;5035897;28;20216;-68
2023/12/24 08:02:57;;;;;;;13.67;8.13;;;;;9.70;96166.00;;;;5042114;28;20713;-67
2023/12/24 08:05:46;;;;;;;12.43;9.23;;;;;9.70;96163.00;;;;5045495;28;20196;-67
2023/12/24 08:08:36;;;;;;;15.50;10.87;;;;;9.90;96161.00;;;;5051876;28;20278;-67
2023/12/24 08:11:27;;;;;;;20.00;11.77;;;;;9.80;96166.00;;;;5048752;28;21190;-67
2023/12/24 08:14:16;;;;;;;17.87;11.43;;;;;9.70;96171.00;;;;5056836;28;20200;-67
2023/12/24 08:17:05;;;;;;;18.07;10.60;;;;;9.90;96173.00;;;;5049469;28;20216;-67
2023/12/24 08:19:56;;;;;;;17.60;12.00;;;;;9.90;96198.00;;;;5054191;28;20193;-67
2023/12/24 08:22:45;;;;;;;12.53;10.73;;;;;9.90;96197.00;;;;5057971;28;20227;-67
2023/12/24 08:25:34;;;;;;;30.07;15.37;;;;;9.90;96207.00;;;;5048511;28;20203;-67
2023/12/24 08:28:24;;;;;;;23.10;15.07;;;;;9.80;96195.00;;;;5052560;28;20228;-67
2023/12/24 08:31:14;;;;;;;16.00;13.27;;;;;9.40;96182.00;;;;5045863;28;20215;-66
2023/12/24 08:34:03;;;;;;;16.23;10.70;;;;;10.10;96202.00;;;;5051101;28;20281;-66
2023/12/24 08:36:53;;;;;;;14.60;12.10;;;;;10.10;96202.00;;;;5054318;28;20205;-66
2023/12/24 08:39:43;;;;;;;12.70;10.60;;;;;10.10;96206.00;;;;5040887;28;20200;-66
2023/12/24 08:42:32;;;;;;;23.33;15.23;;;;;9.90;96207.00;;;;5047543;28;20223;-64
2023/12/24 08:45:21;;;;;;;27.57;14.90;;;;;10.10;96213.00;;;;5049334;28;20221;-66
2023/12/24 08:48:10;;;;;;;22.60;16.27;;;;;9.80;96212.00;;;;5043956;28;20861;-66
2023/12/24 08:51:01;;;;;;;14.63;12.53;;;;;9.70;96218.00;;;;5052065;28;20208;-66
2023/12/24 08:53:51;;;;;;;10.23;9.33;;;;;9.60;96219.00;;;;5048182;28;20217;-66
2023/12/24 08:56:40;;;;;;;18.17;14.07;;;;;9.60;96239.00;;;;5046027;28;20696;-66
2023/12/24 08:59:29;;;;;;;25.80;15.90;;;;;9.80;96237.00;;;;5056395;28;20203;-67
2023/12/24 09:02:18;;;;;;;24.27;15.80;;;;;9.90;96249.00;;;;5050851;28;20316;-66
2023/12/24 09:05:08;;;;;;;20.10;12.87;;;;;10.10;96235.00;;;;5053005;28;20224;-66
2023/12/24 09:07:58;;;;;;;15.50;12.43;;;;;10.10;96248.00;;;;5055577;28;20215;-66
2023/12/24 09:10:49;;;;;;;16.60;12.43;;;;;10.10;96247.00;;;;5058362;28;20199;-67
2023/12/24 09:13:38;;;;;;;17.87;13.37;;;;;10.00;96239.00;;;;5054428;28;20904;-69
2023/12/24 09:16:27;;;;;;;24.53;16.60;;;;;10.50;96250.00;;;;5042063;28;20205;-69
2023/12/24 09:19:16;;;;;;;16.00;11.97;;;;;10.30;96255.00;;;;5048574;28;20208;-68
2023/12/24 09:22:05;;;;;;;30.63;19.40;;;;;10.60;96250.00;;;;5040043;28;20227;-69
2023/12/24 09:24:54;;;;;;;19.27;16.90;;;;;10.70;96250.00;;;;5048117;28;20250;-69
2023/12/24 09:27:45;;;;;;;18.77;16.27;;;;;10.80;96256.00;;;;5055514;28;20200;-69
2023/12/24 09:30:34;;;;;;;13.50;11.40;;;;;10.70;96246.00;;;;5043715;28;20205;-69
2023/12/24 09:33:23;;;;;;;34.47;19.50;;;;;10.40;96256.00;;;;5049512;28;20216;-69
2023/12/24 09:36:12;;;;;;;18.03;15.23;;;;;10.30;96253.00;;;;5042769;28;20296;-69
2023/12/24 09:39:01;;;;;;;18.13;15.67;;;;;10.00;96259.00;;;;5050914;28;20575;-69
2023/12/24 09:41:51;;;;;;;18.80;16.97;;;;;10.30;96265.00;;;;5042581;28;21009;-69
2023/12/24 09:44:41;;;;;;;21.00;16.13;;;;;10.30;96270.00;;;;5043628;28;20223;-69
2023/12/24 09:47:31;;;;;;;30.40;19.73;;;;;11.00;96271.00;;;;5045796;28;20215;-68
2023/12/24 09:50:20;;;;;;;42.33;27.23;;;;;10.60;96264.00;;;;5050214;28;20207;-69
2023/12/24 09:53:09;;;;;;;24.93;18.13;;;;;10.40;96265.00;;;;5047051;28;20494;-70
2023/12/24 09:55:59;;;;;;;17.77;16.00;;;;;10.20;96268.00;;;;5043659;28;20866;-69
2023/12/24 09:58:48;;;;;;;22.40;19.87;;;;;10.40;96269.00;;;;5055229;28;20219;-69
2023/12/24 10:01:44;;;;;;;22.07;19.80;;;;;10.80;96266.00;;;;5045330;28;20200;-69
2023/12/24 10:04:33;;;;;;;29.87;18.93;;;;;10.70;96268.00;;;;5040461;28;20224;-70
2023/12/24 10:07:22;;;;;;;40.50;27.13;;;;;11.00;96265.00;;;;5055033;28;20200;-69
2023/12/24 10:10:13;;;;;;;22.20;18.23;;;;;11.10;96266.00;;;;5047774;28;20883;-70
2023/12/24 10:13:06;;;;;;;51.43;27.30;;;;;10.90;96265.00;;;;5038213;28;20321;-69
2023/12/24 10:16:04;;;;;;;19.27;17.33;;;;;10.70;96267.00;;;;5044709;28;20237;-69
2023/12/24 10:18:55;;;;;;;18.20;16.33;;;;;11.20;96260.00;;;;5043373;28;20200;-70
2023/12/24 10:21:44;;;;;;;18.53;16.50;;;;;11.20;96259.00;;;;5048752;28;20203;-69
2023/12/24 10:24:34;;;;;;;32.00;23.03;;;;;10.90;96248.00;;;;5050103;28;20220;-70
2023/12/24 10:27:24;;;;;;;40.40;23.53;;;;;10.90;96261.00;;;;5046292;28;20209;-70
2023/12/24 10:30:14;;;;;;;22.93;17.87;;;;;11.40;96239.00;;;;5054405;28;20211;-69
2023/12/24 10:33:09;;;;;;;16.90;15.20;;;;;11.60;96237.00;;;;5050661;28;21084;-70
2023/12/24 10:36:00;;;;;;;29.20;22.43;;;;;10.90;96243.00;;;;5054121;28;20773;-70
2023/12/24 10:38:49;;;;;;;22.33;20.20;;;;;11.40;96227.00;;;;5049927;28;20208;-69
2023/12/24 10:41:38;;;;;;;23.53;21.30;;;;;11.70;96227.00;;;;5040720;28;20228;-69
2023/12/24 10:44:27;;;;;;;26.37;23.67;;;;;11.70;96222.00;;;;5041869;28;20225;-70
2023/12/24 10:47:17;;;;;;;27.27;24.47;;;;;11.00;96219.00;;;;5039149;28;20209;-69
2023/12/24 10:50:07;;;;;;;25.37;23.17;;;;;11.20;96217.00;;;;5039956;28;20213;-70
2023/12/24 10:52:57;;;;;;;25.63;23.23;;;;;11.30;96219.00;;;;5036946;28;20252;-69
2023/12/24 10:55:51;;;;;;;22.87;20.90;;;;;11.60;96217.00;;;;5038357;28;20281;-68
2023/12/24 10:58:49;;;;;;;27.53;24.43;;;;;12.20;96212.00;;;;5040632;28;20221;-69
2023/12/24 11:01:39;;;;;;;25.50;23.27;;;;;11.60;96208.00;;;;5044451;28;20204;-69
2023/12/24 11:04:44;;;;;;;38.80;32.03;;;;;11.60;96210.00;;;;5040796;28;20232;-70
2023/12/24 11:07:52;;;;;;;39.47;29.67;;;;;11.70;96204.00;;;;5039087;28;20212;-69
2023/12/24 11:10:43;;;;;;;29.33;26.73;;;;;12.10;96209.00;;;;5043105;28;20192;-68
2023/12/24 11:13:45;;;;;;;39.03;35.20;;;;;12.80;96197.00;;;;5046611;28;20242;-69
2023/12/24 11:16:42;;;;;;;42.63;38.20;;;;;12.90;96187.00;;;;5042949;28;20209;-69
2023/12/24 11:19:32;;;;;;;46.00;41.43;;;;;12.50;96173.00;;;;5039725;28;20586;-69
2023/12/24 11:22:23;;;;;;;52.87;47.43;;;;;12.70;96167.00;;;;5040197;28;20263;-69
2023/12/24 11:25:19;;;;;;;46.53;43.10;;;;;12.60;96174.00;;;;5043084;28;20615;-68
2023/12/24 11:28:12;;;;;;;43.67;40.53;;;;;12.80;96163.00;;;;5052057;28;20215;-68
2023/12/24 11:31:05;;;;;;;40.97;38.43;;;;;13.30;96175.00;;;;5046359;28;20205;-68
2023/12/24 11:33:55;;;;;;;46.07;43.07;;;;;13.90;96175.00;;;;5053953;28;20197;-68
2023/12/24 11:37:03;;;;;;;49.03;46.43;;;;;14.20;96169.00;;;;5054270;28;20207;-68
2023/12/24 11:40:03;;;;;;;51.20;48.10;;;;;14.20;96170.00;;;;5054257;28;20189;-69
2023/12/24 11:42:53;;;;;;;51.33;47.90;;;;;13.80;96169.00;;;;5053336;28;20715;-69
2023/12/24 11:45:43;;;;;;;52.57;48.73;;;;;14.10;96167.00;;;;5051390;28;20244;-69
2023/12/24 11:48:35;;;;;;;51.53;47.80;;;;;14.30;96161.00;;;;5044692;28;20863;-68
2023/12/24 11:51:27;;;;;;;58.40;53.40;;;;;14.70;96163.00;;;;5040848;28;20206;-69
2023/12/24 11:54:21;;;;;;;56.43;52.80;;;;;14.70;96158.00;;;;5050879;28;20599;-68
2023/12/24 11:57:11;;;;;;;73.83;67.70;;;;;14.70;96156.00;;;;5037972;28;20712;-69
2023/12/24 12:00:00;;;;;;;76.47;70.80;;;;;14.50;96167.00;;;;5048275;28;20205;-68
2023/12/24 12:02:56;;;;;;;77.73;72.30;;;;;14.70;96172.00;;;;5045055;28;20220;-69
2023/12/24 12:05:45;;;;;;;72.47;67.57;;;;;14.40;96162.00;;;;5041683;28;20224;-69
2023/12/24 12:08:35;;;;;;;85.47;78.37;;;;;14.00;96155.00;;;;5042762;28;20208;-69
2023/12/24 12:11:24;;;;;;;86.93;80.13;;;;;13.80;96156.00;;;;5039638;28;20224;-70
2023/12/24 12:14:13;;;;;;;72.17;67.47;;;;;14.50;96147.00;;;;5040066;28;20205;-69
2023/12/24 12:17:02;;;;;;;81.33;74.87;;;;;13.80;96140.00;;;;5042914;28;20197;-69
2023/12/24 12:19:53;;;;;;;68.77;64.33;;;;;14.40;96146.00;;;;5046996;28;20580;-70
2023/12/24 12:22:42;;;;;;;75.13;70.30;;;;;14.60;96140.00;;;;5045800;28;20228;-69
2023/12/24 12:25:31;;;;;;;102.57;94.20;;;;;14.90;96130.00;;;;5043868;28;20220;-69
2023/12/24 12:28:20;;;;;;;97.13;89.53;;;;;15.20;96134.00;;;;5041404;28;20201;-70
2023/12/24 12:31:09;;;;;;;106.27;97.77;;;;;14.60;96115.00;;;;5038352;28;20201;-70
2023/12/24 12:33:58;;;;;;;134.43;122.40;;;;;15.00;96126.00;;;;5042926;28;20213;-70
2023/12/24 12:36:49;;;;;;;127.97;116.37;;;;;15.00;96119.00;;;;5043322;28;20210;-71
2023/12/24 12:39:38;;;;;;;121.70;111.03;;;;;12.60;96110.00;;;;5040198;28;20211;-69
2023/12/24 12:42:28;;;;;;;120.03;109.17;;;;;13.70;96123.00;;;;5040171;28;20213;-70
2023/12/24 12:45:20;;;;;;;115.47;105.57;;;;;15.30;96116.00;;;;5041877;28;20235;-70
2023/12/24 12:48:10;;;;;;;128.80;116.33;;;;;15.60;96124.00;;;;5038511;28;20208;-69
2023/12/24 12:51:00;;;;;;;140.23;126.63;;;;;16.00;96127.00;;;;5038691;28;20284;-70
2023/12/24 12:53:50;;;;;;;139.60;126.23;;;;;16.40;96125.00;;;;5042535;28;20231;-69
2023/12/24 12:56:46;;;;;;;154.87;139.20;;;;;16.60;96122.00;;;;5038730;28;20250;-70
2023/12/24 12:59:35;;;;;;;163.57;148.00;;;;;17.10;96132.00;;;;5041328;28;20212;-69
2023/12/24 13:02:27;;;;;;;147.40;135.33;;;;;17.10;96130.00;;;;5036980;28;20630;-70
2023/12/24 13:05:27;;;;;;;149.03;137.20;;;;;17.50;96112.00;;;;5039637;28;20690;-69
2023/12/24 13:08:17;;;;;;;149.87;138.97;;;;;17.60;96125.00;;;;5037917;28;20624;-69
2023/12/24 13:11:08;;;;;;;174.43;160.77;;;;;17.60;96111.00;;;;5041679;28;20208;-70
2023/12/24 13:14:05;;;;;;;167.33;154.57;;;;;17.70;96113.00;;;;5050455;28;20248;-70
2023/12/24 13:17:06;;;;;;;153.10;142.83;;;;;17.90;96105.00;;;;5047165;28;20231;-69
2023/12/24 13:19:56;;;;;;;188.77;175.20;;;;;18.10;96111.00;;;;5041128;28;20220;-70
2023/12/24 13:22:45;;;;;;;186.03;172.83;;;;;17.50;96114.00;;;;5047816;28;20230;-70
2023/12/24 13:25:34;;;;;;;197.63;182.20;;;;;16.00;96107.00;;;;5042981;28;20712;-69
2023/12/24 13:28:25;;;;;;;178.33;165.63;;;;;16.90;96109.00;;;;5040874;28;20592;-70
2023/12/24 13:31:14;;;;;;;156.00;146.17;;;;;16.80;96126.00;;;;5042772;28;20211;-70
2023/12/24 13:34:03;;;;;;;146.33;135.70;;;;;16.50;96121.00;;;;5037214;28;20580;-69
2023/12/24 13:36:52;;;;;;;128.77;120.87;;;;;16.40;96120.00;;;;5039839;28;20227;-69
2023/12/24 13:39:41;;;;;;;121.03;113.53;;;;;16.00;96121.00;;;;5039743;28;20200;-68
2023/12/24 13:42:30;;;;;;;119.63;111.37;;;;;16.10;96121.00;;;;5040921;28;20263;-69
2023/12/24 13:45:21;;;;;;;112.07;105.47;;;;;16.10;96101.00;;;;5045072;28;20638;-70
2023/12/24 13:48:11;;;;;;;105.37;98.43;;;;;16.10;96108.00;;;;5040636;28;20560;-70
2023/12/24 13:51:02;;;;;;;100.10;93.57;;;;;15.80;96107.00;;;;5041786;28;20690;-69
2023/12/24 13:53:51;;;;;;;106.03;99.40;;;;;15.80;96119.00;;;;5043467;28;20239;-70
2023/12/24 13:56:40;;;;;;;89.10;83.00;;;;;15.70;96107.00;;;;5039693;28;20240;-70
2023/12/24 13:59:30;;;;;;;90.20;83.77;;;;;15.60;96121.00;;;;5044875;28;20211;-70